Time;durP1;ratioP1;P1;durP2;ratioP2;P2;SDS_P1;SDS_P2;PMS_P1;PMS_P2;Temp;Humidity;BMP_temperature;BMP_pressure;BME280_temperature;BME280_humidity;BME280_pressure;Samples;Min_cycle;Max_cycle;Signal;HPM_P1;HPM_P2
2021/04/05 00:01:27;;;;;;;9.93;3.87;;;9.70;99.90;;;;;;5070472;28;20255;-69
2021/04/05 00:03:54;;;;;;;6.87;4.70;;;9.70;99.90;;;;;;5070081;28;20225;-70
2021/04/05 00:06:22;;;;;;;8.63;5.00;;;9.70;99.90;;;;;;5070386;28;20213;-71
2021/04/05 00:08:49;;;;;;;7.53;5.17;;;9.60;99.90;;;;;;5069803;28;20221;-70
2021/04/05 00:11:17;;;;;;;9.77;4.73;;;9.50;99.90;;;;;;5069978;28;20673;-71
2021/04/05 00:13:44;;;;;;;9.23;5.50;;;9.40;99.90;;;;;;5070394;28;20206;-68
2021/04/05 00:16:11;;;;;;;8.73;5.60;;;9.30;99.90;;;;;;5070809;28;20259;-69
2021/04/05 00:18:38;;;;;;;7.40;4.93;;;9.20;99.90;;;;;;5070570;28;20288;-73
2021/04/05 00:21:07;;;;;;;9.97;6.67;;;9.10;99.90;;;;;;5069723;28;20646;-68
2021/04/05 00:23:34;;;;;;;7.47;5.67;;;9.20;99.90;;;;;;5069888;28;20249;-68
2021/04/05 00:26:02;;;;;;;13.10;7.47;;;9.30;99.90;;;;;;5070072;28;20255;-71
2021/04/05 00:28:28;;;;;;;8.97;7.23;;;9.20;99.90;;;;;;5070046;28;20284;-69
2021/04/05 00:30:55;;;;;;;11.63;7.33;;;9.20;99.90;;;;;;5069208;28;20251;-67
2021/04/05 00:33:22;;;;;;;12.57;6.93;;;9.20;99.90;;;;;;5065005;28;20670;-70
2021/04/05 00:35:49;;;;;;;8.73;7.03;;;9.30;99.90;;;;;;5069320;28;20743;-71
2021/04/05 00:38:17;;;;;;;17.90;7.40;;;9.30;99.90;;;;;;5069804;28;20198;-68
2021/04/05 00:40:48;;;;;;;10.60;6.77;;;9.20;99.90;;;;;;5069563;28;20228;-67
2021/04/05 00:43:17;;;;;;;10.03;5.07;;;9.30;99.90;;;;;;5070165;28;20214;-71
2021/04/05 00:45:44;;;;;;;8.47;5.67;;;9.30;99.90;;;;;;5069671;28;20213;-70
2021/04/05 00:48:12;;;;;;;6.27;4.70;;;9.30;99.90;;;;;;5070059;28;20248;-74
2021/04/05 00:50:48;;;;;;;6.87;4.37;;;9.10;99.90;;;;;;5067842;28;20216;-71
2021/04/05 00:53:18;;;;;;;9.57;5.43;;;9.20;99.90;;;;;;5063732;28;20205;-76
2021/04/05 00:55:47;;;;;;;11.77;4.87;;;9.00;99.90;;;;;;5070089;28;20209;-68
2021/04/05 00:58:15;;;;;;;8.27;4.70;;;9.00;99.90;;;;;;5069872;28;20295;-73
2021/04/05 01:00:43;;;;;;;6.47;4.60;;;8.90;99.90;;;;;;5070219;28;20213;-72
2021/04/05 01:03:13;;;;;;;11.13;4.80;;;9.10;99.90;;;;;;5070000;28;20217;-74
2021/04/05 01:05:40;;;;;;;6.87;4.87;;;9.00;99.90;;;;;;5070299;28;20283;-72
2021/04/05 01:08:08;;;;;;;8.00;4.83;;;8.90;99.90;;;;;;5069344;28;20206;-74
2021/04/05 01:10:34;;;;;;;8.30;5.87;;;8.80;99.90;;;;;;5069963;28;20209;-73
2021/04/05 01:13:01;;;;;;;9.60;4.80;;;8.90;99.90;;;;;;5069464;28;20213;-72
2021/04/05 01:15:29;;;;;;;10.53;5.53;;;8.90;99.90;;;;;;5071825;28;20240;-69
2021/04/05 01:17:55;;;;;;;7.47;4.57;;;8.90;99.90;;;;;;5073220;28;20261;-77
2021/04/05 01:20:22;;;;;;;9.13;5.33;;;8.80;99.90;;;;;;5073322;28;20698;-76
2021/04/05 01:22:52;;;;;;;8.23;4.43;;;9.30;99.90;;;;;;5073115;28;20214;-70
2021/04/05 01:25:20;;;;;;;11.67;4.93;;;8.70;99.90;;;;;;5073345;28;20289;-70
2021/04/05 01:27:47;;;;;;;5.73;4.53;;;8.60;99.90;;;;;;5073085;28;20585;-76
2021/04/05 01:30:30;;;;;;;10.17;4.97;;;8.80;99.90;;;;;;5073034;28;20210;-72
2021/04/05 01:33:06;;;;;;;6.67;3.73;;;8.90;99.90;;;;;;5072697;28;20294;-68
2021/04/05 01:35:39;;;;;;;6.00;3.80;;;8.90;99.90;;;;;;5072955;28;20233;-68
2021/04/05 01:38:07;;;;;;;4.63;4.00;;;8.80;99.90;;;;;;5072809;28;20213;-69
2021/04/05 01:40:35;;;;;;;8.77;5.77;;;8.60;99.90;;;;;;5072609;28;20681;-68
2021/04/05 01:43:02;;;;;;;7.17;4.17;;;8.40;99.90;;;;;;5072951;28;20213;-70
2021/04/05 01:45:29;;;;;;;6.30;4.50;;;8.50;99.90;;;;;;5072716;28;20202;-69
2021/04/05 01:47:56;;;;;;;8.57;4.83;;;8.50;99.90;;;;;;5072638;28;20214;-68
2021/04/05 01:50:22;;;;;;;7.07;3.90;;;8.50;99.90;;;;;;5072494;28;20210;-67
2021/04/05 01:52:49;;;;;;;8.90;4.40;;;8.50;99.90;;;;;;5072353;28;20577;-68
2021/04/05 01:55:17;;;;;;;9.30;4.73;;;8.60;99.90;;;;;;5073118;28;20290;-68
2021/04/05 01:57:43;;;;;;;6.97;4.33;;;8.70;99.90;;;;;;5072384;28;20573;-68
2021/04/05 02:00:13;;;;;;;5.43;4.23;;;8.60;99.90;;;;;;5073340;28;20210;-69
2021/04/05 02:02:41;;;;;;;13.63;5.23;;;8.60;99.90;;;;;;5072933;28;20206;-70
2021/04/05 02:05:09;;;;;;;11.40;4.53;;;8.70;99.90;;;;;;5072355;28;20237;-69
2021/04/05 02:07:37;;;;;;;9.27;5.30;;;8.70;99.90;;;;;;5072500;28;20265;-68
2021/04/05 02:10:08;;;;;;;9.37;4.17;;;8.50;99.90;;;;;;5072456;28;20207;-68
2021/04/05 02:12:35;;;;;;;7.03;4.67;;;8.40;99.90;;;;;;5072583;28;20226;-71
2021/04/05 02:15:04;;;;;;;8.93;5.07;;;8.40;99.90;;;;;;5072297;28;20210;-71
2021/04/05 02:17:31;;;;;;;8.53;4.87;;;8.30;99.90;;;;;;5072284;28;20210;-70
2021/04/05 02:19:57;;;;;;;9.73;4.37;;;8.10;99.90;;;;;;5071700;28;20349;-68
2021/04/05 02:22:24;;;;;;;9.83;4.63;;;8.10;99.90;;;;;;5072736;28;20585;-71
2021/04/05 02:24:51;;;;;;;7.13;4.70;;;8.10;99.90;;;;;;5071819;28;20229;-70
2021/04/05 02:27:18;;;;;;;8.37;5.30;;;8.10;99.90;;;;;;5071419;28;20198;-69
2021/04/05 02:29:46;;;;;;;12.33;6.17;;;8.20;99.90;;;;;;5071928;28;20261;-69
2021/04/05 02:32:12;;;;;;;8.33;4.77;;;8.20;99.90;;;;;;5071953;28;20691;-72
2021/04/05 02:34:39;;;;;;;9.47;5.37;;;8.20;99.90;;;;;;5072371;28;20206;-68
2021/04/05 02:37:06;;;;;;;10.10;4.47;;;8.10;99.90;;;;;;5072432;28;20210;-69
2021/04/05 02:39:32;;;;;;;8.27;4.23;;;8.00;99.90;;;;;;5072188;28;20260;-69
2021/04/05 02:41:59;;;;;;;10.60;5.40;;;8.00;99.90;;;;;;5070494;28;20568;-68
2021/04/05 02:44:26;;;;;;;10.70;5.47;;;8.10;99.90;;;;;;5071931;28;20226;-68
2021/04/05 02:46:54;;;;;;;8.97;4.53;;;8.00;99.90;;;;;;5069888;28;20209;-69
2021/04/05 02:49:21;;;;;;;9.87;4.53;;;8.20;99.90;;;;;;5071720;28;20214;-72
2021/04/05 02:51:50;;;;;;;20.90;5.60;;;8.20;99.90;;;;;;5071363;28;20213;-74
2021/04/05 02:54:20;;;;;;;8.60;5.13;;;8.20;99.90;;;;;;5071676;28;20630;-72
2021/04/05 02:56:47;;;;;;;13.50;4.70;;;8.20;99.90;;;;;;5071196;28;20739;-73
2021/04/05 02:59:17;;;;;;;5.70;4.57;;;8.10;99.90;;;;;;5071562;28;20255;-74
2021/04/05 03:01:44;;;;;;;8.53;5.10;;;8.10;99.90;;;;;;5071091;28;20217;-73
2021/04/05 03:04:12;;;;;;;7.53;5.50;;;7.90;99.90;;;;;;5071326;28;20770;-69
2021/04/05 03:06:38;;;;;;;10.13;5.50;;;7.80;99.90;;;;;;5072022;28;20217;-76
2021/04/05 03:09:06;;;;;;;12.97;4.57;;;7.70;99.90;;;;;;5071431;28;20210;-77
2021/04/05 03:11:35;;;;;;;7.37;4.90;;;7.60;99.90;;;;;;5071631;28;20213;-75
2021/04/05 03:14:03;;;;;;;8.40;4.47;;;7.60;99.90;;;;;;5071106;28;20210;-77
2021/04/05 03:16:31;;;;;;;9.47;5.37;;;7.70;99.90;;;;;;5071008;28;20288;-76
2021/04/05 03:19:01;;;;;;;9.73;4.60;;;7.70;99.90;;;;;;5071113;28;20216;-74
2021/04/05 03:21:29;;;;;;;8.37;5.07;;;7.80;99.90;;;;;;5071179;28;20605;-69
2021/04/05 03:24:00;;;;;;;10.27;4.70;;;7.60;99.90;;;;;;5070536;28;20222;-71
2021/04/05 03:26:27;;;;;;;8.20;5.03;;;7.70;99.90;;;;;;5070990;28;20202;-69
2021/04/05 03:28:53;;;;;;;8.87;5.27;;;7.70;99.90;;;;;;5070383;28;20206;-69
2021/04/05 03:31:22;;;;;;;8.97;4.90;;;7.60;99.90;;;;;;5070614;28;20213;-69
2021/04/05 03:33:53;;;;;;;10.77;4.80;;;7.80;99.90;;;;;;5070581;28;20606;-68
2021/04/05 03:36:25;;;;;;;9.20;4.90;;;7.60;99.90;;;;;;5070524;28;20622;-67
2021/04/05 03:38:53;;;;;;;8.73;5.23;;;7.60;99.90;;;;;;5070290;28;20202;-73
2021/04/05 03:41:27;;;;;;;6.80;4.57;;;7.60;99.90;;;;;;5070747;28;20206;-69
2021/04/05 03:44:00;;;;;;;8.10;4.17;;;7.60;99.90;;;;;;5070233;28;20237;-71
2021/04/05 03:46:31;;;;;;;15.17;6.70;;;7.40;99.90;;;;;;5070505;28;20210;-69
2021/04/05 03:49:09;;;;;;;12.03;5.73;;;7.40;99.90;;;;;;5070265;28;20210;-69
2021/04/05 03:51:41;;;;;;;12.63;4.80;;;7.60;99.90;;;;;;5070950;28;20217;-68
2021/04/05 03:54:10;;;;;;;8.63;4.67;;;7.60;99.90;;;;;;5070440;28;20221;-68
2021/04/05 03:56:40;;;;;;;9.50;4.53;;;7.50;99.90;;;;;;5071001;28;20275;-68
2021/04/05 03:59:12;;;;;;;12.33;5.07;;;7.60;99.90;;;;;;5069911;28;20210;-68
2021/04/05 04:01:46;;;;;;;8.53;4.97;;;7.60;99.90;;;;;;5071002;28;20240;-68
2021/04/05 04:04:17;;;;;;;8.90;4.77;;;7.60;99.90;;;;;;5070025;28;20272;-69
2021/04/05 04:06:52;;;;;;;6.27;4.33;;;7.60;99.90;;;;;;5069946;28;20210;-68
2021/04/05 04:09:22;;;;;;;10.63;4.30;;;7.60;99.90;;;;;;5070405;28;20795;-68
2021/04/05 04:11:50;;;;;;;8.80;5.93;;;7.70;99.90;;;;;;5070017;28;20198;-70
2021/04/05 04:14:18;;;;;;;10.93;5.20;;;7.60;99.90;;;;;;5070152;28;20206;-70
2021/04/05 04:16:47;;;;;;;6.57;4.80;;;7.60;99.90;;;;;;5069866;28;20358;-73
2021/04/05 04:19:14;;;;;;;7.53;4.73;;;7.60;99.90;;;;;;5070548;28;20241;-69
2021/04/05 04:21:44;;;;;;;10.37;5.83;;;7.70;99.90;;;;;;5070690;28;20275;-71
2021/04/05 04:24:11;;;;;;;11.53;5.80;;;7.60;99.90;;;;;;5070743;28;20249;-70
2021/04/05 04:26:38;;;;;;;10.10;5.30;;;7.60;99.90;;;;;;5070583;28;20229;-72
2021/04/05 04:29:05;;;;;;;6.73;4.40;;;7.50;99.90;;;;;;5069403;28;20206;-74
2021/04/05 04:31:32;;;;;;;10.53;4.73;;;7.50;99.90;;;;;;5070208;28;21125;-76
2021/04/05 04:33:58;;;;;;;8.87;5.10;;;7.50;99.90;;;;;;5069876;28;20674;-72
2021/04/05 04:36:26;;;;;;;10.83;4.60;;;7.40;99.90;;;;;;5070167;28;20210;-73
2021/04/05 04:38:54;;;;;;;8.53;5.57;;;7.40;99.90;;;;;;5069838;28;20603;-74
2021/04/05 04:41:24;;;;;;;12.83;5.63;;;7.30;99.90;;;;;;5070358;28;20267;-77
2021/04/05 04:43:56;;;;;;;9.67;5.30;;;7.40;99.90;;;;;;5069050;28;20597;-72
2021/04/05 04:46:22;;;;;;;10.17;6.97;;;7.60;99.90;;;;;;5070495;28;20206;-73
2021/04/05 04:48:54;;;;;;;7.97;4.80;;;7.60;99.90;;;;;;5069762;28;20210;-76
2021/04/05 04:51:21;;;;;;;7.17;5.00;;;7.60;99.90;;;;;;5074066;28;20589;-73
2021/04/05 04:53:47;;;;;;;7.57;4.60;;;7.50;99.90;;;;;;5073167;28;20214;-75
2021/04/05 04:56:15;;;;;;;10.57;4.53;;;7.50;99.90;;;;;;5074151;28;20201;-76
2021/04/05 04:58:43;;;;;;;6.83;4.77;;;7.50;99.90;;;;;;5073990;28;20296;-76
2021/04/05 05:01:11;;;;;;;10.43;5.77;;;7.50;99.90;;;;;;5074023;28;20658;-75
2021/04/05 05:03:42;;;;;;;12.07;6.57;;;7.40;99.90;;;;;;5074178;28;20732;-75
2021/04/05 05:06:12;;;;;;;6.97;5.47;;;7.30;99.90;;;;;;5074098;28;20198;-75
2021/04/05 05:08:40;;;;;;;12.43;5.33;;;7.30;99.90;;;;;;5074224;28;20233;-79
2021/04/05 05:11:07;;;;;;;10.83;5.47;;;7.40;99.90;;;;;;5073411;28;20202;-70
2021/04/05 05:13:34;;;;;;;6.23;5.03;;;7.40;99.90;;;;;;5073586;28;20264;-72
2021/04/05 05:16:01;;;;;;;12.83;5.43;;;7.50;99.90;;;;;;5073178;28;20709;-68
2021/04/05 05:18:29;;;;;;;8.37;5.07;;;7.40;99.90;;;;;;5073701;28;20210;-69
2021/04/05 05:20:56;;;;;;;8.80;5.80;;;7.30;99.90;;;;;;5073162;28;20678;-68
2021/04/05 05:23:24;;;;;;;9.97;5.10;;;7.40;99.90;;;;;;5073348;28;20202;-71
2021/04/05 05:25:52;;;;;;;8.17;4.73;;;7.40;99.90;;;;;;5073155;28;20210;-67
2021/04/05 05:28:22;;;;;;;8.80;6.20;;;7.40;99.90;;;;;;5073213;28;20662;-71
2021/04/05 05:30:49;;;;;;;9.17;5.57;;;7.40;99.90;;;;;;5072952;28;20213;-66
2021/04/05 05:33:16;;;;;;;8.33;5.20;;;7.30;99.90;;;;;;5073319;28;20587;-68
2021/04/05 05:35:44;;;;;;;10.17;5.53;;;7.30;99.90;;;;;;5073216;28;20225;-68
2021/04/05 05:38:11;;;;;;;15.40;6.13;;;7.30;99.90;;;;;;5073196;28;20573;-69
2021/04/05 05:40:40;;;;;;;7.53;5.63;;;7.30;99.90;;;;;;5073445;28;20232;-74
2021/04/05 05:43:28;;;;;;;9.00;5.13;;;7.30;99.90;;;;;;5073238;28;20202;-69
2021/04/05 05:46:08;;;;;;;8.67;5.57;;;7.30;99.90;;;;;;5072623;28;20206;-71
2021/04/05 05:49:00;;;;;;;9.07;5.70;;;7.30;99.90;;;;;;5072918;28;20362;-71
2021/04/05 05:51:47;;;;;;;7.67;5.47;;;7.40;99.90;;;;;;5073263;28;20194;-71
2021/04/05 05:54:23;;;;;;;6.90;4.67;;;7.50;99.90;;;;;;5072876;28;20205;-76
2021/04/05 05:56:52;;;;;;;11.07;6.43;;;7.60;99.90;;;;;;5071738;28;20202;-74
2021/04/05 05:59:25;;;;;;;9.73;6.40;;;7.60;99.90;;;;;;5068615;28;20217;-75
2021/04/05 06:02:02;;;;;;;8.60;5.30;;;7.60;99.90;;;;;;5070175;28;20213;-83
2021/04/05 06:05:01;;;;;;;7.50;5.33;;;7.60;99.90;;;;;;5071379;28;20217;-80
2021/04/05 06:07:42;;;;;;;8.93;6.13;;;7.60;99.90;;;;;;5071443;28;20670;-77
2021/04/05 06:10:17;;;;;;;10.80;5.83;;;7.70;99.90;;;;;;5071994;28;20201;-80
2021/04/05 06:12:52;;;;;;;10.00;6.40;;;7.70;99.90;;;;;;5072104;28;20202;-67
2021/04/05 06:15:21;;;;;;;12.50;6.73;;;7.70;99.90;;;;;;5072379;28;20669;-69
2021/04/05 06:18:11;;;;;;;11.10;5.97;;;7.60;99.90;;;;;;5071891;28;20240;-72
2021/04/05 06:20:40;;;;;;;9.03;6.70;;;7.70;99.90;;;;;;5072316;28;20210;-74
2021/04/05 06:23:28;;;;;;;9.57;6.30;;;7.90;99.90;;;;;;5071338;28;20625;-76
2021/04/05 06:26:03;;;;;;;8.30;5.67;;;8.00;99.90;;;;;;5070179;28;20210;-70
2021/04/05 06:28:39;;;;;;;10.53;5.47;;;8.00;99.90;;;;;;5071942;28;20621;-74
2021/04/05 06:31:15;;;;;;;8.00;5.97;;;8.20;99.90;;;;;;5072001;28;20582;-71
2021/04/05 06:33:49;;;;;;;10.43;6.07;;;8.40;99.90;;;;;;5071082;28;20274;-74
2021/04/05 06:36:21;;;;;;;12.00;5.87;;;8.60;99.90;;;;;;5071762;28;20206;-77
2021/04/05 06:38:53;;;;;;;12.37;5.30;;;8.70;99.90;;;;;;5070899;28;20678;-77
2021/04/05 06:42:09;;;;;;;8.03;5.40;;;8.90;99.90;;;;;;5070825;28;20701;-77
2021/04/05 06:45:12;;;;;;;15.70;5.77;;;9.10;99.90;;;;;;5053382;28;20272;-73
2021/04/05 06:48:01;;;;;;;9.23;4.80;;;9.30;99.90;;;;;;5070871;28;20213;-74
2021/04/05 06:50:34;;;;;;;6.97;5.73;;;9.30;99.90;;;;;;5071395;28;20203;-79
2021/04/05 06:53:22;;;;;;;10.80;4.77;;;9.20;99.90;;;;;;5071032;28;20206;-79
2021/04/05 06:55:55;;;;;;;14.80;6.07;;;9.40;99.90;;;;;;5069927;28;20630;-78
2021/04/05 06:58:37;;;;;;;8.73;6.00;;;9.30;99.90;;;;;;5070173;28;20693;-76
2021/04/05 07:01:22;;;;;;;7.37;5.33;;;9.30;99.90;;;;;;5069195;28;20205;-68
2021/04/05 07:04:16;;;;;;;12.43;5.37;;;9.40;99.90;;;;;;5069983;28;20588;-68
2021/04/05 07:06:50;;;;;;;10.73;5.20;;;9.60;99.90;;;;;;5067564;28;20236;-68
2021/04/05 07:09:33;;;;;;;17.57;6.17;;;9.70;99.90;;;;;;5071208;28;20202;-69
2021/04/05 07:12:25;;;;;;;8.13;4.87;;;9.80;99.90;;;;;;5070228;28;20202;-69
2021/04/05 07:15:04;;;;;;;10.30;6.37;;;9.90;99.90;;;;;;5069403;28;20194;-68
2021/04/05 07:17:39;;;;;;;12.60;5.60;;;10.00;99.90;;;;;;5070975;28;20271;-68
2021/04/05 07:20:15;;;;;;;9.50;5.07;;;10.00;99.90;;;;;;5066266;28;20201;-69
2021/04/05 07:22:53;;;;;;;7.83;4.63;;;10.20;99.90;;;;;;5070765;28;20202;-68
2021/04/05 07:25:24;;;;;;;9.57;5.53;;;10.20;99.90;;;;;;5071226;28;20214;-69
2021/04/05 07:28:02;;;;;;;11.17;6.03;;;10.30;99.90;;;;;;5070120;28;20267;-67
2021/04/05 07:30:34;;;;;;;12.37;6.23;;;10.50;99.90;;;;;;5070809;28;20202;-68
2021/04/05 07:33:10;;;;;;;13.57;5.90;;;10.40;99.90;;;;;;5070423;28;20206;-69
2021/04/05 07:35:43;;;;;;;8.47;5.73;;;10.40;99.90;;;;;;5070983;28;20206;-69
2021/04/05 07:38:19;;;;;;;13.40;6.20;;;10.60;99.90;;;;;;5070801;28;20674;-68
2021/04/05 07:40:57;;;;;;;12.27;6.07;;;10.60;99.90;;;;;;5069013;28;20224;-67
2021/04/05 07:43:35;;;;;;;14.00;6.40;;;10.70;99.90;;;;;;5070455;28;20209;-67
2021/04/05 07:46:23;;;;;;;10.00;7.50;;;10.60;99.90;;;;;;5057413;28;20292;-68
2021/04/05 07:48:58;;;;;;;16.23;6.73;;;10.70;99.90;;;;;;5070135;28;20202;-68
2021/04/05 07:51:35;;;;;;;7.97;6.33;;;11.00;99.90;;;;;;5070313;28;20254;-66
2021/04/05 07:54:04;;;;;;;12.60;6.30;;;11.10;99.90;;;;;;5070087;28;20210;-67
2021/04/05 07:56:35;;;;;;;14.27;6.57;;;11.10;99.90;;;;;;5070599;28;20213;-68
2021/04/05 07:59:11;;;;;;;12.52;8.02;;;11.30;99.90;;;;;;5067622;28;20548;-74
2021/04/05 08:01:45;;;;;;;12.13;6.73;;;11.20;99.90;;;;;;5070455;28;20201;-73
2021/04/05 08:04:21;;;;;;;10.82;7.78;;;10.90;99.90;;;;;;5069354;28;20449;-72
2021/04/05 08:06:59;;;;;;;13.40;7.10;;;10.50;99.90;;;;;;5069815;28;20244;-77
2021/04/05 08:09:31;;;;;;;12.20;6.40;;;10.50;99.90;;;;;;5070346;28;20607;-74
2021/04/05 08:12:23;;;;;;;11.03;6.83;;;10.30;99.90;;;;;;5069893;28;20217;-73
2021/04/05 08:15:03;;;;;;;11.33;7.17;;;10.80;99.90;;;;;;5068329;28;20198;-72
2021/04/05 08:17:44;;;;;;;9.87;7.03;;;10.50;99.90;;;;;;5065977;28;20206;-72
2021/04/05 08:20:18;;;;;;;12.30;7.70;;;10.60;99.90;;;;;;5067370;28;20201;-73
2021/04/05 08:22:53;;;;;;;11.70;6.27;;;10.60;99.90;;;;;;5062101;28;20214;-72
2021/04/05 08:25:27;;;;;;;9.30;7.03;;;10.80;99.90;;;;;;5066400;28;20233;-73
2021/04/05 08:28:05;;;;;;;10.73;6.90;;;10.80;99.90;;;;;;5067647;28;20202;-72
2021/04/05 08:30:40;;;;;;;10.37;6.40;;;10.80;99.90;;;;;;5067129;28;20226;-68
2021/04/05 08:33:17;;;;;;;7.97;5.80;;;10.80;99.90;;;;;;5068427;28;20204;-68
2021/04/05 08:35:45;;;;;;;11.57;7.37;;;10.90;99.90;;;;;;5066655;28;20202;-67
2021/04/05 08:38:23;;;;;;;13.80;6.80;;;11.00;99.90;;;;;;5074256;28;20708;-69
2021/04/05 08:40:59;;;;;;;14.47;6.33;;;11.30;99.90;;;;;;5066599;28;20198;-68
2021/04/05 08:43:33;;;;;;;9.37;6.80;;;11.70;99.90;;;;;;5066424;28;20194;-69
2021/04/05 08:46:10;;;;;;;10.77;6.67;;;11.60;99.90;;;;;;5068439;28;20225;-70
2021/04/05 08:48:39;;;;;;;13.97;7.47;;;11.70;99.90;;;;;;5067951;28;20210;-69
2021/04/05 08:51:11;;;;;;;11.47;6.77;;;11.80;99.90;;;;;;5066538;28;20225;-68
2021/04/05 08:53:42;;;;;;;11.40;7.40;;;12.90;99.90;;;;;;5067895;28;20210;-69
2021/04/05 08:56:12;;;;;;;8.63;6.37;;;13.40;99.90;;;;;;5069122;28;20194;-70
2021/04/05 08:58:45;;;;;;;15.13;6.70;;;13.10;99.90;;;;;;5069771;28;20296;-71
2021/04/05 09:01:18;;;;;;;9.67;6.00;;;12.90;99.90;;;;;;5069347;28;20263;-68
2021/04/05 09:03:48;;;;;;;8.87;5.73;;;13.20;99.90;;;;;;5068352;28;20202;-68
2021/04/05 09:06:21;;;;;;;13.63;8.40;;;13.30;99.90;;;;;;5068349;28;20198;-69
2021/04/05 09:08:50;;;;;;;13.80;6.57;;;13.10;99.90;;;;;;5069641;28;20210;-70
2021/04/05 09:11:17;;;;;;;6.85;5.45;;;13.10;99.90;;;;;;5069746;28;20202;-69
2021/04/05 09:13:46;;;;;;;15.57;6.83;;;13.50;99.90;;;;;;5069581;28;20568;-68
2021/04/05 09:16:45;;;;;;;16.97;10.33;;;13.60;99.90;;;;;;5069945;28;20550;-69
2021/04/05 09:20:02;;;;;;;12.97;6.03;;;13.10;99.90;;;;;;5069309;28;20259;-70
2021/04/05 09:22:59;;;;;;;9.63;5.80;;;14.10;99.90;;;;;;5053541;28;20329;-69
2021/04/05 09:25:46;;;;;;;13.52;7.30;;;14.60;99.90;;;;;;5066880;28;20712;-68
2021/04/05 09:28:38;;;;;;;14.50;6.70;;;15.00;99.90;;;;;;5069562;28;20209;-68
2021/04/05 09:31:42;;;;;;;8.50;5.55;;;15.20;99.90;;;;;;5069226;28;20202;-69
2021/04/05 09:34:40;;;;;;;9.43;6.03;;;15.80;99.90;;;;;;5065881;28;20217;-72
2021/04/05 09:37:29;;;;;;;9.43;6.30;;;15.30;99.90;;;;;;5023658;28;20670;-71
2021/04/05 09:40:12;;;;;;;15.77;6.45;;;16.30;99.90;;;;;;5072522;28;20685;-70
2021/04/05 09:43:10;;;;;;;10.05;5.15;;;16.00;99.90;;;;;;5065432;28;20206;-72
2021/04/05 09:45:43;;;;;;;11.00;6.68;;;16.00;99.90;;;;;;5070264;28;20304;-68
2021/04/05 09:48:27;;;;;;;6.03;4.53;;;16.50;99.90;;;;;;5073138;28;20221;-74
2021/04/05 09:51:28;;;;;;;8.90;5.20;;;17.40;99.90;;;;;;5071651;28;20662;-73
2021/04/05 09:54:08;;;;;;;11.75;5.20;;;21.20;99.90;;;;;;5060268;28;20217;-71
2021/04/05 09:56:42;;;;;;;7.72;5.03;;;21.70;99.90;;;;;;5072799;28;20252;-72
2021/04/05 09:59:11;;;;;;;7.20;5.70;;;22.90;99.90;;;;;;5072121;28;20288;-69
2021/04/05 10:01:39;;;;;;;9.40;5.93;;;23.90;99.90;;;;;;5073096;28;20206;-71
2021/04/05 10:04:09;;;;;;;11.10;5.50;;;24.90;99.90;;;;;;5072453;28;20238;-74
2021/04/05 10:06:37;;;;;;;9.32;5.75;;;23.90;99.90;;;;;;5065526;28;20678;-69
2021/04/05 10:09:05;;;;;;;8.02;5.75;;;23.20;99.90;;;;;;5072609;28;20643;-69
2021/04/05 10:11:35;;;;;;;7.47;4.85;;;22.80;99.90;;;;;;5071699;28;20210;-70
2021/04/05 10:14:05;;;;;;;10.25;5.53;;;24.70;99.90;;;;;;5071197;28;20213;-69
2021/04/05 10:16:33;;;;;;;10.90;5.05;;;24.10;99.90;;;;;;5072234;28;20210;-69
2021/04/05 10:19:07;;;;;;;10.57;5.72;;;22.80;99.90;;;;;;5071960;28;20202;-72
2021/04/05 10:21:36;;;;;;;7.38;3.97;;;23.60;99.90;;;;;;5072539;28;20206;-73
2021/04/05 10:24:05;;;;;;;8.25;5.13;;;24.30;99.90;;;;;;5072092;28;20206;-69
2021/04/05 10:26:34;;;;;;;7.18;5.28;;;23.80;99.90;;;;;;5072303;28;20617;-72
2021/04/05 10:29:04;;;;;;;4.78;4.30;;;24.40;99.90;;;;;;5071970;28;20559;-71
2021/04/05 10:31:31;;;;;;;9.65;4.57;;;24.30;99.90;;;;;;5071833;28;20336;-72
2021/04/05 10:34:03;;;;;;;5.60;4.45;;;24.40;99.90;;;;;;5071666;28;20686;-69
2021/04/05 10:36:35;;;;;;;6.72;5.28;;;19.90;99.90;;;;;;5071534;28;20202;-71
2021/04/05 10:39:03;;;;;;;6.63;5.20;;;17.60;99.90;;;;;;5069162;28;20674;-69
2021/04/05 10:41:30;;;;;;;13.57;5.38;;;16.60;99.90;;;;;;5071593;28;20213;-71
2021/04/05 10:44:01;;;;;;;7.10;4.35;;;16.20;99.90;;;;;;5069978;28;20211;-70
2021/04/05 10:46:31;;;;;;;6.90;4.25;;;16.10;99.90;;;;;;5071046;28;20236;-70
2021/04/05 10:49:01;;;;;;;8.18;4.47;;;15.80;99.90;;;;;;5070365;28;20202;-70
2021/04/05 10:51:30;;;;;;;12.93;7.75;;;15.90;99.90;;;;;;5071057;28;20595;-70
2021/04/05 10:54:01;;;;;;;11.25;5.68;;;15.90;99.90;;;;;;5070864;28;20208;-70
2021/04/05 10:56:29;;;;;;;9.35;4.15;;;15.80;99.90;;;;;;5070939;28;20202;-70
2021/04/05 10:59:01;;;;;;;8.27;3.90;;;15.60;99.90;;;;;;5071369;28;20263;-69
2021/04/05 11:01:29;;;;;;;8.27;3.60;;;16.00;99.90;;;;;;5058702;28;20293;-69
2021/04/05 11:03:58;;;;;;;6.47;3.67;;;16.30;99.90;;;;;;5071408;28;20202;-68
2021/04/05 11:06:28;;;;;;;8.95;4.78;;;16.40;99.90;;;;;;5071383;28;20638;-71
2021/04/05 11:08:56;;;;;;;4.78;3.88;;;16.50;99.90;;;;;;5071084;28;20213;-69
2021/04/05 11:11:29;;;;;;;8.95;4.28;;;16.20;99.90;;;;;;5071049;28;20247;-69
2021/04/05 11:14:02;;;;;;;4.60;3.92;;;16.10;99.90;;;;;;5070916;28;20256;-72
2021/04/05 11:16:30;;;;;;;7.35;3.65;;;16.10;99.90;;;;;;5071278;28;20202;-69
2021/04/05 11:19:00;;;;;;;11.88;4.65;;;16.00;99.90;;;;;;5071252;28;20206;-68
2021/04/05 11:21:35;;;;;;;7.43;3.47;;;16.20;99.90;;;;;;5071324;28;20210;-72
2021/04/05 11:24:03;;;;;;;9.00;3.90;;;16.40;99.90;;;;;;5070735;28;20661;-68
2021/04/05 11:26:33;;;;;;;6.00;3.70;;;16.30;99.90;;;;;;5071153;28;20203;-69
2021/04/05 11:29:03;;;;;;;11.35;4.20;;;16.20;99.90;;;;;;5068971;28;20194;-69
2021/04/05 11:31:36;;;;;;;7.30;4.50;;;16.20;99.90;;;;;;5070805;28;20208;-69
2021/04/05 11:34:03;;;;;;;9.80;4.20;;;16.00;99.90;;;;;;5068920;28;20202;-71
2021/04/05 11:36:38;;;;;;;6.35;3.50;;;16.10;99.90;;;;;;5069679;28;20237;-71
2021/04/05 11:39:10;;;;;;;5.97;4.30;;;16.50;99.90;;;;;;5069964;28;20598;-70
2021/04/05 11:41:38;;;;;;;10.13;4.38;;;16.70;99.90;;;;;;5071346;28;20198;-68
2021/04/05 11:44:07;;;;;;;9.40;4.43;;;16.90;99.90;;;;;;5069949;28;20206;-68
2021/04/05 11:46:36;;;;;;;5.70;3.53;;;17.00;99.90;;;;;;5070683;28;20257;-71
2021/04/05 11:49:05;;;;;;;7.22;4.97;;;16.70;99.90;;;;;;5070163;28;20665;-68
2021/04/05 11:51:39;;;;;;;8.63;3.47;;;16.80;99.90;;;;;;5071166;28;20214;-70
2021/04/05 11:54:09;;;;;;;7.28;3.45;;;17.10;99.90;;;;;;5070166;28;20202;-67
2021/04/05 11:56:37;;;;;;;7.90;3.97;;;17.00;99.90;;;;;;5070963;28;20206;-70
2021/04/05 11:59:13;;;;;;;6.53;3.47;;;16.90;99.90;;;;;;5069553;28;20217;-68
2021/04/05 12:01:55;;;;;;;9.93;4.05;;;17.20;99.90;;;;;;5071174;28;20661;-67
2021/04/05 12:04:25;;;;;;;7.95;3.83;;;17.30;99.90;;;;;;5070261;28;20214;-68
2021/04/05 12:06:57;;;;;;;5.25;3.03;;;17.60;99.90;;;;;;5070443;28;20213;-68
2021/04/05 12:09:28;;;;;;;3.70;3.13;;;17.60;99.90;;;;;;5069167;28;20213;-68
2021/04/05 12:12:02;;;;;;;9.57;3.88;;;17.70;99.90;;;;;;5068302;28;20202;-68
2021/04/05 12:14:31;;;;;;;6.85;2.97;;;17.60;99.90;;;;;;5067505;28;20204;-69
2021/04/05 12:17:01;;;;;;;7.28;4.80;;;17.70;99.90;;;;;;5069938;28;20202;-68
2021/04/05 12:19:31;;;;;;;8.38;4.63;;;17.70;99.90;;;;;;5068562;28;20198;-68
2021/04/05 12:21:58;;;;;;;4.20;3.00;;;17.70;99.90;;;;;;5066133;28;20666;-69
2021/04/05 12:24:28;;;;;;;5.45;3.17;;;17.70;99.90;;;;;;5069990;28;20241;-68
2021/04/05 12:26:57;;;;;;;7.20;3.00;;;17.70;99.90;;;;;;5072736;28;20206;-70
2021/04/05 12:29:25;;;;;;;9.48;3.83;;;17.80;99.90;;;;;;5075446;28;21234;-70
2021/04/05 12:31:55;;;;;;;8.13;3.88;;;17.80;99.90;;;;;;5068620;28;20255;-70
2021/04/05 12:34:27;;;;;;;8.27;3.42;;;18.20;99.90;;;;;;5072700;28;20213;-70
2021/04/05 12:36:55;;;;;;;8.38;3.88;;;18.10;99.90;;;;;;5069718;28;20680;-69
2021/04/05 12:39:29;;;;;;;6.70;3.10;;;19.00;99.90;;;;;;5069616;28;20213;-70
2021/04/05 12:41:56;;;;;;;6.00;3.60;;;18.40;99.90;;;;;;5069338;28;20202;-70
2021/04/05 12:44:26;;;;;;;7.03;3.40;;;18.40;99.90;;;;;;5065921;28;20256;-70
2021/04/05 12:46:55;;;;;;;4.30;3.63;;;18.50;99.90;;;;;;5069247;28;20221;-69
2021/04/05 12:49:25;;;;;;;4.82;3.03;;;18.00;99.90;;;;;;5069011;28;20202;-70
2021/04/05 12:51:57;;;;;;;6.18;3.75;;;17.60;99.90;;;;;;5069389;28;20264;-70
2021/04/05 12:54:27;;;;;;;3.90;3.00;;;18.00;99.90;;;;;;5067526;28;20250;-70
2021/04/05 12:56:57;;;;;;;11.25;3.38;;;18.20;99.90;;;;;;5066703;28;20213;-71
2021/04/05 12:59:25;;;;;;;3.45;2.60;;;18.00;99.90;;;;;;5069646;28;20202;-70
2021/04/05 13:01:57;;;;;;;8.40;3.35;;;17.50;99.90;;;;;;5069102;28;20202;-68
2021/04/05 13:04:26;;;;;;;9.63;3.75;;;17.20;99.90;;;;;;5069868;28;20202;-70
2021/04/05 13:06:56;;;;;;;8.05;3.92;;;17.30;99.90;;;;;;5069143;28;20610;-70
2021/04/05 13:09:25;;;;;;;7.10;3.38;;;17.60;99.90;;;;;;5068369;28;20286;-75
2021/04/05 13:11:55;;;;;;;7.70;3.90;;;17.90;99.90;;;;;;5071976;28;20280;-71
2021/04/05 13:14:27;;;;;;;7.72;4.07;;;18.20;99.90;;;;;;5073807;28;20213;-71